Time;durP1;ratioP1;P1;durP2;ratioP2;P2;SDS_P1;SDS_P2;PMS_P1;PMS_P2;Temp;Humidity;BMP_temperature;BMP_pressure;BME280_temperature;BME280_humidity;BME280_pressure;Samples;Min_cycle;Max_cycle;Signal;HPM_P1;HPM_P2
2022/03/20 00:01:04;;;;;;;;;;;19.10;98.80;;;;;;5028903;28;19933;-59
2022/03/20 00:03:31;;;;;;;;;;;19.10;98.80;;;;;;5046182;28;19925;-57
2022/03/20 00:05:59;;;;;;;;;;;19.10;98.80;;;;;;5036183;28;20368;-56
2022/03/20 00:08:26;;;;;;;;;;;19.10;98.80;;;;;;5034736;28;19929;-61
2022/03/20 00:10:54;;;;;;;;;;;19.10;98.80;;;;;;5029370;28;19929;-58
2022/03/20 00:13:22;;;;;;;;;;;19.10;98.80;;;;;;5040070;28;19929;-58
2022/03/20 00:15:50;;;;;;;;;;;19.00;98.80;;;;;;5036950;28;19935;-59
2022/03/20 00:18:23;;;;;;;;;;;19.00;98.80;;;;;;5037613;28;20304;-58
2022/03/20 00:20:51;;;;;;;;;;;19.00;98.80;;;;;;5033832;28;20711;-58
2022/03/20 00:23:18;;;;;;;;;;;19.00;98.80;;;;;;5042446;28;19933;-59
2022/03/20 00:25:46;;;;;;;;;;;19.00;98.80;;;;;;5040047;28;19936;-58
2022/03/20 00:28:15;;;;;;;;;;;19.00;98.80;;;;;;5030347;28;19933;-60
2022/03/20 00:30:43;;;;;;;;;;;19.00;98.80;;;;;;5035994;28;19929;-60
2022/03/20 00:33:10;;;;;;;;;;;19.00;98.80;;;;;;5035348;28;19926;-60
2022/03/20 00:35:37;;;;;;;;;;;19.00;98.80;;;;;;5032444;28;20404;-57
2022/03/20 00:38:05;;;;;;;;;;;19.00;98.70;;;;;;5033920;28;20498;-59
2022/03/20 00:40:33;;;;;;;;;;;19.00;98.70;;;;;;5029433;28;19925;-59
2022/03/20 00:43:00;;;;;;;;;;;19.00;98.70;;;;;;5035423;28;19936;-60
2022/03/20 00:45:30;;;;;;;;;;;18.90;98.70;;;;;;5032907;28;20262;-59
2022/03/20 00:47:57;;;;;;;;;;;18.90;98.70;;;;;;5039438;28;19929;-60
2022/03/20 00:50:24;;;;;;;;;;;18.90;98.80;;;;;;5043787;28;20352;-60
2022/03/20 00:52:51;;;;;;;;;;;18.90;98.80;;;;;;5040711;28;19929;-56
2022/03/20 00:55:19;;;;;;;;;;;18.90;98.80;;;;;;5031696;28;19933;-61
2022/03/20 00:57:47;;;;;;;;;;;18.90;98.80;;;;;;5044594;28;20258;-60
2022/03/20 01:00:16;;;;;;;;;;;18.90;98.80;;;;;;5030702;28;19929;-58
2022/03/20 01:02:44;;;;;;;;;;;18.90;98.80;;;;;;5041742;28;19929;-60
2022/03/20 01:05:11;;;;;;;;;;;18.90;98.70;;;;;;5028559;28;20386;-58
2022/03/20 01:07:39;;;;;;;;;;;18.80;98.70;;;;;;5040647;28;19925;-58
2022/03/20 01:10:07;;;;;;;;;;;18.90;98.70;;;;;;5029822;28;19936;-61
2022/03/20 01:12:36;;;;;;;;;;;18.80;98.70;;;;;;5032867;28;20588;-60
2022/03/20 01:15:08;;;;;;;;;;;18.80;98.70;;;;;;5042311;28;19936;-61
2022/03/20 01:17:35;;;;;;;;;;;18.80;98.70;;;;;;5047055;28;19936;-60
2022/03/20 01:20:03;;;;;;;;;;;18.80;98.70;;;;;;5041315;28;19939;-58
2022/03/20 01:22:30;;;;;;;;;;;18.80;98.70;;;;;;5043579;28;19929;-58
2022/03/20 01:24:57;;;;;;;;;;;18.80;98.70;;;;;;5028814;28;19925;-62
2022/03/20 01:27:24;;;;;;;;;;;18.80;98.70;;;;;;5029867;28;19929;-59
2022/03/20 01:29:51;;;;;;;;;;;18.80;98.70;;;;;;5031504;28;19944;-59
2022/03/20 01:32:19;;;;;;;;;;;18.70;98.70;;;;;;5047120;28;19940;-60
2022/03/20 01:34:47;;;;;;;;;;;18.70;98.70;;;;;;5028221;28;20408;-60
2022/03/20 01:37:14;;;;;;;;;;;18.70;98.70;;;;;;5042857;28;19936;-60
2022/03/20 01:39:41;;;;;;;;;;;18.70;98.60;;;;;;5045582;28;19928;-59
2022/03/20 01:42:08;;;;;;;;;;;18.70;98.70;;;;;;5030556;28;20428;-61
2022/03/20 01:44:36;;;;;;;;;;;18.70;98.60;;;;;;5039329;28;20431;-58
2022/03/20 01:47:05;;;;;;;;;;;18.70;98.60;;;;;;5035629;28;20415;-59
2022/03/20 01:49:32;;;;;;;;;;;18.70;98.60;;;;;;5028997;28;19925;-59
2022/03/20 01:52:11;;;;;;;;;;;18.70;98.60;;;;;;5035001;28;19933;-58
2022/03/20 01:54:44;;;;;;;;;;;18.70;98.70;;;;;;5030143;28;19929;-58
2022/03/20 01:57:20;;;;;;;;;;;18.70;98.60;;;;;;5033893;28;20307;-59
2022/03/20 01:59:48;;;;;;;;;;;18.60;98.60;;;;;;5042144;28;19936;-60
2022/03/20 02:02:15;;;;;;;;;;;18.70;98.60;;;;;;5033214;28;19936;-59
2022/03/20 02:04:43;;;;;;;;;;;18.70;98.60;;;;;;5027837;28;19929;-60
2022/03/20 02:07:10;;;;;;;;;;;18.60;98.60;;;;;;5036192;28;19933;-59
2022/03/20 02:09:40;;;;;;;;;;;18.60;98.60;;;;;;5026372;28;22462;-60
2022/03/20 02:12:07;;;;;;;;;;;18.60;98.60;;;;;;5036962;28;19928;-60
2022/03/20 02:14:34;;;;;;;;;;;18.60;98.60;;;;;;5030857;28;19925;-61
2022/03/20 02:17:02;;;;;;;;;;;18.60;98.60;;;;;;5043740;28;20456;-60
2022/03/20 02:19:30;;;;;;;;;;;18.60;98.60;;;;;;5044086;28;19936;-57
2022/03/20 02:21:57;;;;;;;;;;;18.60;98.60;;;;;;5035233;28;19936;-60
2022/03/20 02:24:32;;;;;;;;;;;18.60;98.60;;;;;;5031617;28;19929;-62
2022/03/20 02:27:09;;;;;;;;;;;18.60;98.60;;;;;;5037502;28;19933;-61
2022/03/20 02:29:37;;;;;;;;;;;18.60;98.60;;;;;;5031316;28;19936;-61
2022/03/20 02:32:05;;;;;;;;;;;18.60;98.80;;;;;;5060932;28;20397;-61
2022/03/20 02:34:32;;;;;;;;;;;18.60;98.60;;;;;;5031336;28;19929;-61
2022/03/20 02:37:03;;;;;;;;;;;18.60;98.60;;;;;;5037039;28;19951;-59
2022/03/20 02:39:30;;;;;;;;;;;18.50;98.60;;;;;;5031695;28;20308;-60
2022/03/20 02:42:00;;;;;;;;;;;18.50;98.50;;;;;;5037337;28;19937;-60
2022/03/20 02:44:46;;;;;;;;;;;18.50;98.50;;;;;;5031223;28;19925;-60
2022/03/20 02:47:13;;;;;;;;;;;18.50;98.50;;;;;;5035304;28;19929;-60
2022/03/20 02:49:41;;;;;;;;;;;18.50;98.50;;;;;;5048349;28;19928;-60
2022/03/20 02:52:08;;;;;;;;;;;18.50;98.50;;;;;;5035508;28;19929;-60
2022/03/20 02:54:35;;;;;;;;;;;18.50;98.50;;;;;;5038448;28;20597;-56
2022/03/20 02:57:08;;;;;;;;;;;18.50;98.50;;;;;;5048301;28;19936;-58
2022/03/20 02:59:35;;;;;;;;;;;18.50;98.50;;;;;;5044899;28;19933;-59
2022/03/20 03:02:02;;;;;;;;;;;18.50;98.50;;;;;;5045077;28;19936;-58
2022/03/20 03:04:31;;;;;;;;;;;18.50;98.50;;;;;;5030615;28;20316;-60
2022/03/20 03:07:02;;;;;;;;;;;18.40;98.50;;;;;;5046173;28;19952;-63
2022/03/20 03:12:14;;;;;;;;;;;18.40;98.50;;;;;;5040138;28;19936;-62
2022/03/20 03:17:30;;;;;;;;;;;18.40;98.50;;;;;;5030957;28;19929;-59
2022/03/20 03:19:57;;;;;;;;;;;18.40;98.50;;;;;;5031542;28;20404;-61
2022/03/20 03:22:25;;;;;;;;;;;18.40;98.40;;;;;;5035368;28;19936;-59
2022/03/20 03:24:55;;;;;;;;;;;18.40;98.50;;;;;;5038912;28;19924;-60
2022/03/20 03:27:22;;;;;;;;;;;18.40;98.50;;;;;;5036179;28;19932;-59
2022/03/20 03:29:49;;;;;;;;;;;18.40;98.50;;;;;;5040228;28;20289;-61
2022/03/20 03:32:17;;;;;;;;;;;18.40;98.50;;;;;;5057532;28;19929;-57
2022/03/20 03:37:32;;;;;;;;;;;18.40;98.40;;;;;;5041992;28;19932;-60
2022/03/20 03:40:00;;;;;;;;;;;18.40;98.40;;;;;;5035337;28;19936;-65
2022/03/20 03:42:27;;;;;;;;;;;18.40;98.40;;;;;;5043428;28;20503;-62
2022/03/20 03:44:55;;;;;;;;;;;18.30;98.40;;;;;;5041570;28;20427;-62
2022/03/20 03:47:22;;;;;;;;;;;18.40;98.40;;;;;;5061396;28;19933;-61
2022/03/20 03:49:49;;;;;;;;;;;18.30;98.40;;;;;;5049696;28;19925;-60
2022/03/20 03:52:17;;;;;;;;;;;18.30;98.40;;;;;;5038711;28;19925;-62
2022/03/20 03:54:44;;;;;;;;;;;18.40;98.40;;;;;;5039077;28;19929;-60
2022/03/20 03:57:11;;;;;;;;;;;18.30;98.30;;;;;;5040229;28;19929;-59
2022/03/20 03:59:38;;;;;;;;;;;18.30;98.40;;;;;;5040792;28;19929;-62
2022/03/20 04:02:05;;;;;;;;;;;18.30;98.40;;;;;;5041544;28;19929;-61
2022/03/20 04:04:33;;;;;;;;;;;18.30;98.40;;;;;;5033717;28;19926;-57
2022/03/20 04:07:00;;;;;;;;;;;18.30;98.40;;;;;;5051579;28;20227;-61
2022/03/20 04:09:27;;;;;;;;;;;18.30;98.40;;;;;;5057964;28;19936;-62
2022/03/20 04:11:54;;;;;;;;;;;18.30;98.40;;;;;;5046810;28;19958;-61
2022/03/20 04:14:22;;;;;;;;;;;18.30;98.30;;;;;;5042293;28;19936;-60
2022/03/20 04:16:49;;;;;;;;;;;18.30;98.30;;;;;;5043221;28;19925;-62
2022/03/20 04:19:16;;;;;;;;;;;18.30;98.30;;;;;;5038353;28;19929;-61
2022/03/20 04:21:43;;;;;;;;;;;18.30;98.30;;;;;;5045308;28;19929;-62
2022/03/20 04:24:10;;;;;;;;;;;18.30;98.30;;;;;;5040464;28;19933;-61
2022/03/20 04:26:37;;;;;;;;;;;18.30;98.30;;;;;;5055418;28;19932;-60
2022/03/20 04:29:04;;;;;;;;;;;18.20;98.30;;;;;;5050489;28;19933;-62
2022/03/20 04:31:32;;;;;;;;;;;18.30;98.30;;;;;;5070024;28;19925;-60
2022/03/20 04:33:59;;;;;;;;;;;18.20;98.30;;;;;;5059187;28;19935;-63
2022/03/20 04:36:30;;;;;;;;;;;18.20;98.30;;;;;;5051014;28;19936;-60
2022/03/20 04:38:59;;;;;;;;;;;18.20;98.30;;;;;;5061941;28;19929;-62
2022/03/20 04:41:26;;;;;;;;;;;18.20;98.30;;;;;;5045840;28;19940;-60
2022/03/20 04:43:54;;;;;;;;;;;18.20;98.30;;;;;;5058304;28;19929;-62
2022/03/20 04:46:21;;;;;;;;;;;18.20;98.30;;;;;;5045369;28;19932;-62
2022/03/20 04:59:53;;;;;;;;;;;18.30;98.20;;;;;;5052708;28;19924;-60
2022/03/20 05:02:20;;;;;;;;;;;18.40;98.10;;;;;;5039963;28;19929;-60
2022/03/20 05:04:49;;;;;;;;;;;18.60;97.90;;;;;;5042853;28;19936;-61
2022/03/20 05:07:16;;;;;;;;;;;18.80;97.90;;;;;;5051442;28;19929;-60
2022/03/20 05:15:15;;;;;;;;;;;19.30;96.80;;;;;;5037140;28;19936;-61
2022/03/20 05:17:42;;;;;;;;;;;19.50;96.60;;;;;;5049847;28;19932;-60
2022/03/20 05:20:10;;;;;;;;;;;19.60;96.40;;;;;;5037869;28;20324;-59
2022/03/20 05:22:38;;;;;;;;;;;19.70;96.30;;;;;;5049055;28;20277;-61
2022/03/20 05:25:08;;;;;;;;;;;19.90;96.30;;;;;;5048169;28;19944;-60
2022/03/20 05:27:36;;;;;;;;;;;20.00;96.10;;;;;;5047385;28;19935;-62
2022/03/20 05:30:05;;;;;;;;;;;20.10;95.90;;;;;;5056159;28;19935;-59
2022/03/20 05:32:33;;;;;;;;;;;20.30;95.80;;;;;;5052341;28;19933;-62
2022/03/20 05:35:00;;;;;;;;;;;20.50;95.60;;;;;;5042223;28;19936;-60
2022/03/20 05:37:28;;;;;;;;;;;20.70;95.30;;;;;;5053915;28;19928;-61
2022/03/20 05:39:56;;;;;;;;;;;20.90;95.10;;;;;;5052583;28;19929;-60
2022/03/20 05:42:28;;;;;;;;;;;21.10;94.90;;;;;;5040589;28;19933;-59
2022/03/20 05:44:55;;;;;;;;;;;21.20;94.70;;;;;;5036468;28;19929;-61
2022/03/20 05:47:22;;;;;;;;;;;21.30;94.60;;;;;;5037720;28;20034;-61
2022/03/20 05:49:50;;;;;;;;;;;21.30;94.50;;;;;;5046503;28;20317;-62
2022/03/20 05:52:17;;;;;;;;;;;21.40;94.70;;;;;;5053748;28;19932;-60
2022/03/20 05:54:44;;;;;;;;;;;21.50;94.40;;;;;;5055417;28;19936;-62
2022/03/20 05:59:58;;;;;;;;;;;21.60;94.30;;;;;;5044095;28;19936;-61
2022/03/20 06:02:25;;;;;;;;;;;21.60;94.30;;;;;;5046535;28;20226;-60
2022/03/20 06:04:53;;;;;;;;;;;21.60;94.30;;;;;;5040165;28;20411;-60
2022/03/20 06:07:20;;;;;;;;;;;21.50;94.40;;;;;;5042773;28;19936;-63
2022/03/20 06:09:47;;;;;;;;;;;21.40;94.50;;;;;;5034948;28;20393;-59
2022/03/20 06:12:14;;;;;;;;;;;21.40;94.70;;;;;;5033581;28;19929;-61
2022/03/20 06:14:41;;;;;;;;;;;21.30;94.70;;;;;;5034726;28;19933;-61
2022/03/20 06:17:09;;;;;;;;;;;21.30;94.80;;;;;;5056186;28;19929;-60
2022/03/20 06:19:38;;;;;;;;;;;21.20;94.90;;;;;;5047650;28;19929;-61
2022/03/20 06:22:05;;;;;;;;;;;21.20;94.90;;;;;;5046070;28;19929;-62
2022/03/20 06:24:32;;;;;;;;;;;21.20;95.00;;;;;;5041967;28;19940;-60
2022/03/20 06:27:00;;;;;;;;;;;21.20;95.00;;;;;;5052577;28;20328;-61
2022/03/20 06:29:27;;;;;;;;;;;21.10;95.00;;;;;;5047170;28;19925;-59
2022/03/20 06:31:54;;;;;;;;;;;21.10;95.00;;;;;;5058828;28;19929;-61
2022/03/20 06:34:21;;;;;;;;;;;21.10;95.00;;;;;;5050757;28;19929;-61
2022/03/20 06:36:48;;;;;;;;;;;21.10;95.10;;;;;;5047205;28;19925;-59
2022/03/20 06:39:15;;;;;;;;;;;21.10;95.10;;;;;;5045830;28;19929;-60
2022/03/20 06:41:42;;;;;;;;;;;21.00;95.20;;;;;;5052934;28;19928;-65
2022/03/20 06:44:15;;;;;;;;;;;21.00;95.20;;;;;;5053290;28;20034;-61
2022/03/20 06:46:43;;;;;;;;;;;21.00;95.30;;;;;;5061314;28;19933;-62
2022/03/20 06:49:11;;;;;;;;;;;20.90;95.30;;;;;;5057477;28;19946;-60
2022/03/20 06:51:38;;;;;;;;;;;20.90;95.40;;;;;;5050834;28;19929;-62
2022/03/20 06:54:07;;;;;;;;;;;20.80;95.40;;;;;;5054126;28;19936;-61
2022/03/20 06:56:34;;;;;;;;;;;20.80;95.40;;;;;;5049970;28;19939;-61
2022/03/20 06:59:01;;;;;;;;;;;20.80;95.50;;;;;;5052169;28;19936;-61
2022/03/20 07:01:30;;;;;;;;;;;20.70;95.50;;;;;;5053553;28;19929;-60
2022/03/20 07:03:57;;;;;;;;;;;20.70;95.60;;;;;;5064721;28;19931;-61
2022/03/20 07:06:27;;;;;;;;;;;20.70;95.60;;;;;;5046907;28;19925;-61
2022/03/20 07:09:00;;;;;;;;;;;20.60;95.70;;;;;;5052123;28;20275;-61
2022/03/20 07:11:32;;;;;;;;;;;20.60;95.80;;;;;;5061672;28;19926;-62
2022/03/20 07:14:01;;;;;;;;;;;20.60;95.80;;;;;;5051025;28;19929;-60
2022/03/20 07:16:31;;;;;;;;;;;20.60;95.80;;;;;;5054919;28;19945;-61
2022/03/20 07:18:58;;;;;;;;;;;20.60;95.70;;;;;;5049258;28;19929;-59
2022/03/20 07:21:28;;;;;;;;;;;20.70;95.70;;;;;;5059893;28;20380;-60
2022/03/20 07:23:57;;;;;;;;;;;20.80;95.60;;;;;;5051792;28;19944;-60
2022/03/20 07:29:29;;;;;;;;;;;20.90;95.40;;;;;;5039694;28;19929;-61
2022/03/20 07:32:01;;;;;;;;;;;21.00;95.30;;;;;;5044075;28;19929;-62
2022/03/20 07:34:29;;;;;;;;;;;21.10;95.20;;;;;;5043039;28;19952;-62
2022/03/20 07:36:56;;;;;;;;;;;21.10;95.20;;;;;;5057320;28;20406;-62
2022/03/20 07:39:27;;;;;;;;;;;21.20;95.10;;;;;;5051070;28;19929;-61
2022/03/20 07:41:54;;;;;;;;;;;21.20;95.00;;;;;;5050588;28;19929;-61
2022/03/20 07:44:25;;;;;;;;;;;21.20;95.00;;;;;;5045253;28;19929;-62
2022/03/20 07:46:53;;;;;;;;;;;21.30;95.00;;;;;;5051620;28;19936;-60
2022/03/20 07:49:20;;;;;;;;;;;21.20;95.00;;;;;;5047295;28;19944;-61
2022/03/20 07:51:47;;;;;;;;;;;21.30;95.00;;;;;;5076258;28;19929;-62
2022/03/20 07:54:15;;;;;;;;;;;21.30;95.00;;;;;;5056637;28;19932;-61
2022/03/20 07:56:42;;;;;;;;;;;21.20;95.00;;;;;;5038459;28;19952;-62
2022/03/20 07:59:11;;;;;;;;;;;21.30;95.30;;;;;;5042251;28;19925;-60
2022/03/20 08:01:38;;;;;;;;;;;21.20;95.10;;;;;;5045713;28;19936;-61
2022/03/20 08:04:06;;;;;;;;;;;21.20;95.10;;;;;;5035673;28;19936;-60
2022/03/20 08:06:33;;;;;;;;;;;21.20;95.50;;;;;;5042963;28;20008;-61
2022/03/20 08:09:00;;;;;;;;;;;21.20;95.30;;;;;;5035512;28;19929;-61
2022/03/20 08:11:28;;;;;;;;;;;21.20;95.30;;;;;;5040351;28;19944;-62
2022/03/20 08:13:57;;;;;;;;;;;21.10;95.30;;;;;;5035223;28;20533;-62
2022/03/20 08:16:26;;;;;;;;;;;21.10;95.40;;;;;;5044850;28;19929;-61
2022/03/20 08:18:54;;;;;;;;;;;21.00;95.50;;;;;;5049366;28;19939;-61
2022/03/20 08:21:22;;;;;;;;;;;21.00;95.80;;;;;;5046407;28;19929;-60
2022/03/20 08:23:49;;;;;;;;;;;21.00;95.60;;;;;;5048657;28;19974;-61
2022/03/20 08:26:17;;;;;;;;;;;21.00;95.60;;;;;;5047833;28;19925;-61
2022/03/20 08:28:47;;;;;;;;;;;20.90;95.70;;;;;;5057029;28;19925;-61
2022/03/20 08:31:14;;;;;;;;;;;20.90;95.80;;;;;;5044006;28;20419;-60
2022/03/20 08:33:42;;;;;;;;;;;20.90;95.90;;;;;;5036661;28;19929;-61
2022/03/20 08:36:09;;;;;;;;;;;20.80;95.90;;;;;;5049368;28;19929;-58
2022/03/20 08:38:38;;;;;;;;;;;20.80;96.00;;;;;;5047835;28;20396;-61
2022/03/20 08:41:05;;;;;;;;;;;20.80;96.00;;;;;;5030096;28;19929;-59
2022/03/20 08:43:32;;;;;;;;;;;20.70;96.00;;;;;;5041358;28;19948;-60
2022/03/20 08:45:59;;;;;;;;;;;20.80;96.10;;;;;;5030282;28;20309;-60
2022/03/20 08:48:26;;;;;;;;;;;20.80;96.00;;;;;;5030073;28;19948;-61
2022/03/20 08:50:54;;;;;;;;;;;20.90;96.00;;;;;;5036196;28;19933;-59
2022/03/20 08:53:26;;;;;;;;;;;20.90;95.90;;;;;;5035613;28;19946;-57
2022/03/20 08:55:53;;;;;;;;;;;21.00;95.80;;;;;;5045982;28;19940;-58
2022/03/20 08:58:20;;;;;;;;;;;21.20;95.60;;;;;;5045175;28;19929;-61
2022/03/20 09:00:48;;;;;;;;;;;21.20;95.50;;;;;;5032969;28;19929;-61
2022/03/20 09:03:15;;;;;;;;;;;21.30;95.40;;;;;;5039509;28;19952;-60
2022/03/20 09:05:43;;;;;;;;;;;21.40;95.30;;;;;;5035236;28;20388;-60
2022/03/20 09:08:11;;;;;;;;;;;21.40;95.20;;;;;;5036902;28;19936;-61
2022/03/20 09:10:38;;;;;;;;;;;21.40;95.10;;;;;;5029390;28;19928;-61
2022/03/20 09:13:05;;;;;;;;;;;21.40;95.10;;;;;;5032945;28;20387;-61
2022/03/20 09:15:32;;;;;;;;;;;21.40;95.10;;;;;;5046050;28;19928;-58
2022/03/20 09:20:46;;;;;;;;;;;21.50;95.10;;;;;;5049228;28;19936;-59
2022/03/20 09:23:13;;;;;;;;;;;21.40;95.10;;;;;;5038982;28;19929;-59
2022/03/20 09:25:40;;;;;;;;;;;21.40;95.10;;;;;;5059173;28;20476;-59
2022/03/20 09:28:09;;;;;;;;;;;21.40;95.10;;;;;;5079240;28;19932;-58
2022/03/20 09:30:38;;;;;;;;;;;21.40;95.10;;;;;;5059739;28;19936;-62
2022/03/20 09:33:08;;;;;;;;;;;21.40;95.20;;;;;;5052322;28;19929;-61
2022/03/20 09:35:35;;;;;;;;;;;21.40;95.20;;;;;;5040569;28;19929;-62
2022/03/20 09:38:04;;;;;;;;;;;21.30;95.20;;;;;;5034710;28;20369;-60
2022/03/20 09:40:33;;;;;;;;;;;21.30;95.30;;;;;;5027410;28;19948;-60
2022/03/20 09:43:00;;;;;;;;;;;21.30;95.30;;;;;;5031594;28;19925;-62
2022/03/20 09:45:27;;;;;;;;;;;21.20;95.40;;;;;;5029144;28;19936;-59
2022/03/20 09:47:55;;;;;;;;;;;21.20;95.40;;;;;;5038459;28;19935;-61
2022/03/20 09:50:24;;;;;;;;;;;21.20;95.40;;;;;;5028807;28;19936;-61
2022/03/20 09:52:51;;;;;;;;;;;21.10;95.50;;;;;;5036469;28;19948;-58
2022/03/20 09:55:18;;;;;;;;;;;21.10;95.50;;;;;;5036158;28;19936;-60
2022/03/20 09:57:46;;;;;;;;;;;21.10;95.60;;;;;;5038065;28;19936;-61
2022/03/20 10:00:16;;;;;;;;;;;21.00;95.60;;;;;;5060007;28;19929;-62
2022/03/20 10:02:44;;;;;;;;;;;21.00;95.70;;;;;;5039869;28;20321;-61
2022/03/20 10:05:18;;;;;;;;;;;21.00;95.80;;;;;;5030682;28;19939;-62
2022/03/20 10:07:45;;;;;;;;;;;21.00;95.80;;;;;;5048949;28;19924;-61
2022/03/20 10:10:31;;;;;;;;;;;20.90;95.90;;;;;;5031472;28;19936;-62
2022/03/20 10:12:59;;;;;;;;;;;20.90;95.90;;;;;;5033842;28;19933;-61
2022/03/20 10:15:30;;;;;;;;;;;20.90;96.00;;;;;;5032979;28;19924;-63
2022/03/20 10:18:07;;;;;;;;;;;20.90;96.00;;;;;;5032882;28;20334;-62
2022/03/20 10:20:36;;;;;;;;;;;20.90;96.00;;;;;;5043729;28;19925;-60
2022/03/20 10:23:25;;;;;;;;;;;21.00;95.90;;;;;;5029320;28;19933;-62
2022/03/20 10:25:52;;;;;;;;;;;21.00;95.90;;;;;;5029601;28;19929;-63
2022/03/20 10:28:19;;;;;;;;;;;21.10;95.80;;;;;;5036446;28;19925;-62
2022/03/20 10:30:57;;;;;;;;;;;21.20;95.70;;;;;;5049457;28;19928;-62
2022/03/20 10:33:24;;;;;;;;;;;21.30;95.60;;;;;;5036691;28;19951;-61
2022/03/20 10:36:27;;;;;;;;;;;21.40;95.50;;;;;;5032851;28;19928;-60
2022/03/20 10:38:55;;;;;;;;;;;21.40;95.40;;;;;;4951913;28;19942;-59
2022/03/20 10:41:25;;;;;;;;;;;21.50;95.30;;;;;;5027429;28;19925;-61
2022/03/20 10:43:53;;;;;;;;;;;21.50;95.20;;;;;;5041465;28;19936;-59
2022/03/20 10:46:22;;;;;;;;;;;21.60;95.50;;;;;;5032582;28;20110;-61
2022/03/20 10:49:00;;;;;;;;;;;21.60;95.20;;;;;;5033388;28;19929;-63
2022/03/20 10:51:37;;;;;;;;;;;21.60;95.20;;;;;;5038179;28;20359;-60
2022/03/20 10:54:12;;;;;;;;;;;21.60;95.20;;;;;;5039898;28;19925;-60
2022/03/20 10:56:56;;;;;;;;;;;21.50;95.20;;;;;;5046375;28;19928;-63
2022/03/20 10:59:24;;;;;;;;;;;21.50;95.10;;;;;;5062856;28;19929;-59
2022/03/20 11:01:51;;;;;;;;;;;21.50;95.20;;;;;;5036235;28;19957;-60
2022/03/20 11:04:19;;;;;;;;;;;21.50;95.30;;;;;;5077553;28;19973;-62
2022/03/20 11:06:59;;;;;;;;;;;21.40;95.30;;;;;;5050901;28;19932;-61
2022/03/20 11:09:27;;;;;;;;;;;21.40;95.30;;;;;;5038400;28;19952;-63
2022/03/20 11:11:56;;;;;;;;;;;21.40;95.40;;;;;;5035078;28;19940;-60
2022/03/20 11:14:24;;;;;;;;;;;21.40;95.40;;;;;;5031653;28;19956;-63
2022/03/20 11:17:02;;;;;;;;;;;21.40;95.40;;;;;;5043878;28;19936;-62
2022/03/20 11:19:30;;;;;;;;;;;21.30;95.50;;;;;;5044503;28;19929;-61
2022/03/20 11:22:02;;;;;;;;;;;21.30;95.60;;;;;;5029536;28;19929;-64
2022/03/20 11:24:29;;;;;;;;;;;21.20;95.60;;;;;;5033149;28;20285;-61
2022/03/20 11:27:01;;;;;;;;;;;21.20;95.60;;;;;;5039974;28;20502;-61
2022/03/20 11:29:30;;;;;;;;;;;21.20;95.60;;;;;;5030645;28;20025;-61
2022/03/20 11:32:01;;;;;;;;;;;21.20;95.60;;;;;;5053230;28;19928;-63
2022/03/20 11:34:29;;;;;;;;;;;21.10;95.60;;;;;;5045702;28;19936;-61
2022/03/20 11:37:06;;;;;;;;;;;21.20;95.70;;;;;;5041274;28;19929;-61
2022/03/20 11:39:34;;;;;;;;;;;21.10;95.50;;;;;;5074649;28;20262;-59
2022/03/20 11:42:20;;;;;;;;;;;21.10;95.40;;;;;;5080175;28;19928;-60
2022/03/20 11:45:10;;;;;;;;;;;21.00;94.70;;;;;;5046238;28;19940;-60
2022/03/20 11:47:39;;;;;;;;;;;20.90;93.60;;;;;;5025010;28;20381;-62
2022/03/20 11:50:17;;;;;;;;;;;20.90;92.90;;;;;;5046071;28;20407;-63
2022/03/20 11:52:49;;;;;;;;;;;21.00;93.10;;;;;;5040932;28;20401;-62
2022/03/20 11:55:24;;;;;;;;;;;21.10;93.80;;;;;;5043493;28;19932;-61
2022/03/20 11:57:51;;;;;;;;;;;21.20;94.60;;;;;;5053336;28;19928;-62
2022/03/20 12:00:23;;;;;;;;;;;21.40;94.50;;;;;;5060366;28;19937;-62
2022/03/20 12:02:52;;;;;;;;;;;21.50;94.30;;;;;;5060027;28;19933;-63
2022/03/20 12:05:39;;;;;;;;;;;21.50;93.60;;;;;;5042174;28;19925;-62
2022/03/20 12:08:15;;;;;;;;;;;21.60;93.10;;;;;;5042837;28;19936;-62
2022/03/20 12:10:49;;;;;;;;;;;21.60;93.00;;;;;;5033766;28;20036;-60
2022/03/20 12:13:23;;;;;;;;;;;21.70;92.70;;;;;;5053910;28;20346;-64
2022/03/20 12:15:51;;;;;;;;;;;21.70;92.80;;;;;;5060393;28;19933;-64
2022/03/20 12:18:18;;;;;;;;;;;21.80;92.70;;;;;;5064771;28;19932;-64
2022/03/20 12:20:48;;;;;;;;;;;21.80;92.40;;;;;;5063840;28;19939;-63
2022/03/20 12:23:35;;;;;;;;;;;21.70;91.60;;;;;;5062136;28;19992;-69
2022/03/20 12:26:21;;;;;;;;;;;21.60;91.30;;;;;;5059508;28;19929;-65
2022/03/20 12:28:48;;;;;;;;;;;21.50;91.70;;;;;;5048518;28;19935;-64
2022/03/20 12:31:25;;;;;;;;;;;21.40;90.90;;;;;;5045617;28;20456;-65
2022/03/20 12:34:12;;;;;;;;;;;21.30;90.00;;;;;;5047840;28;19940;-65
2022/03/20 12:36:40;;;;;;;;;;;21.20;89.70;;;;;;5040726;28;19929;-64
2022/03/20 12:39:09;;;;;;;;;;;21.10;89.60;;;;;;5051728;28;19930;-56
2022/03/20 12:41:37;;;;;;;;;;;21.10;90.10;;;;;;5048194;28;19929;-60
2022/03/20 12:44:07;;;;;;;;;;;21.10;90.40;;;;;;5049340;28;20327;-60
2022/03/20 12:46:37;;;;;;;;;;;21.20;90.30;;;;;;5047444;28;19933;-60
2022/03/20 12:49:04;;;;;;;;;;;21.20;90.30;;;;;;5040142;28;19925;-60
2022/03/20 12:51:33;;;;;;;;;;;21.20;90.40;;;;;;5050425;28;20300;-60
2022/03/20 12:54:04;;;;;;;;;;;21.20;90.30;;;;;;5040804;28;19936;-60
2022/03/20 12:56:32;;;;;;;;;;;21.20;90.30;;;;;;5048618;28;20301;-61
2022/03/20 12:59:00;;;;;;;;;;;21.20;90.40;;;;;;5044366;28;19932;-60
2022/03/20 13:01:37;;;;;;;;;;;21.20;90.50;;;;;;5038674;28;20000;-60
2022/03/20 13:04:19;;;;;;;;;;;21.10;90.50;;;;;;5047830;28;20336;-60
2022/03/20 13:06:46;;;;;;;;;;;21.20;90.60;;;;;;5039810;28;20320;-61
2022/03/20 13:09:14;;;;;;;;;;;21.20;90.60;;;;;;5040694;28;20387;-60
2022/03/20 13:11:48;;;;;;;;;;;21.30;90.60;;;;;;5036652;28;19932;-58
2022/03/20 13:14:15;;;;;;;;;;;21.30;90.70;;;;;;5030819;28;20618;-60
2022/03/20 13:16:50;;;;;;;;;;;21.40;90.60;;;;;;5041988;28;19929;-60
2022/03/20 13:19:30;;;;;;;;;;;21.40;90.60;;;;;;5043563;28;19929;-61
2022/03/20 13:22:00;;;;;;;;;;;21.50;90.70;;;;;;5035792;28;19925;-61
2022/03/20 13:24:28;;;;;;;;;;;21.50;90.60;;;;;;5048089;28;20420;-62
2022/03/20 13:26:57;;;;;;;;;;;21.60;90.70;;;;;;5047701;28;19936;-61
2022/03/20 13:29:24;;;;;;;;;;;21.60;90.60;;;;;;5040997;28;20278;-59
2022/03/20 13:32:05;;;;;;;;;;;21.60;90.60;;;;;;5040592;28;20385;-62
2022/03/20 13:34:33;;;;;;;;;;;21.70;90.60;;;;;;5042266;28;19929;-61
2022/03/20 13:37:06;;;;;;;;;;;21.60;90.60;;;;;;5041209;28;19929;-60
2022/03/20 13:39:34;;;;;;;;;;;21.60;90.50;;;;;;5034605;28;20656;-62
2022/03/20 13:42:11;;;;;;;;;;;21.60;90.40;;;;;;5040003;28;19929;-60
2022/03/20 13:44:39;;;;;;;;;;;21.60;90.40;;;;;;5038489;28;19929;-63
2022/03/20 13:47:06;;;;;;;;;;;21.60;90.40;;;;;;5042569;28;20014;-63
2022/03/20 13:49:33;;;;;;;;;;;21.60;90.30;;;;;;5042063;28;19929;-60
2022/03/20 13:52:01;;;;;;;;;;;21.60;90.40;;;;;;5045114;28;19960;-63
2022/03/20 13:54:29;;;;;;;;;;;21.60;90.30;;;;;;5036926;28;19936;-62
2022/03/20 13:57:06;;;;;;;;;;;21.50;90.40;;;;;;5040478;28;19986;-59
2022/03/20 13:59:48;;;;;;;;;;;21.50;90.50;;;;;;5029942;28;19936;-61
2022/03/20 14:02:16;;;;;;;;;;;21.60;91.00;;;;;;5040625;28;19933;-61
2022/03/20 14:04:47;;;;;;;;;;;21.60;91.50;;;;;;5028451;28;19929;-61
2022/03/20 14:07:18;;;;;;;;;;;21.60;92.10;;;;;;5042841;28;20359;-59
2022/03/20 14:09:46;;;;;;;;;;;21.60;92.60;;;;;;5046935;28;20016;-62
2022/03/20 14:12:23;;;;;;;;;;;21.70;92.60;;;;;;5042735;28;19929;-61
2022/03/20 14:14:51;;;;;;;;;;;21.70;93.10;;;;;;5050021;28;20044;-60
2022/03/20 14:17:23;;;;;;;;;;;21.70;93.50;;;;;;5044129;28;19948;-61
2022/03/20 14:19:58;;;;;;;;;;;21.80;94.00;;;;;;5036927;28;20316;-60
2022/03/20 14:22:40;;;;;;;;;;;21.80;94.30;;;;;;5049442;28;19933;-63
2022/03/20 14:25:08;;;;;;;;;;;21.80;94.70;;;;;;5037130;28;19925;-60
2022/03/20 14:27:36;;;;;;;;;;;21.80;95.00;;;;;;5066071;28;19933;-62
2022/03/20 14:41:27;;;;;;;;;;;21.80;96.70;;;;;;5036517;28;19936;-62
2022/03/20 14:44:06;;;;;;;;;;;21.70;96.70;;;;;;5036101;28;19929;-62
2022/03/20 14:46:34;;;;;;;;;;;21.70;96.90;;;;;;5049800;28;19929;-62
2022/03/20 14:49:03;;;;;;;;;;;21.60;97.10;;;;;;5039745;28;19929;-61
2022/03/20 14:51:30;;;;;;;;;;;21.60;97.30;;;;;;5051170;28;20385;-61
2022/03/20 14:53:58;;;;;;;;;;;21.60;97.40;;;;;;5041556;28;19929;-62
2022/03/20 14:56:25;;;;;;;;;;;21.60;97.60;;;;;;5043345;28;19929;-63
2022/03/20 14:58:53;;;;;;;;;;;21.60;97.70;;;;;;5041940;28;20000;-61
2022/03/20 15:01:20;;;;;;;;;;;21.50;97.80;;;;;;5044780;28;19936;-60
2022/03/20 15:03:48;;;;;;;;;;;21.50;98.00;;;;;;5049936;28;20414;-60
2022/03/20 15:06:16;;;;;;;;;;;21.50;98.10;;;;;;5079619;28;19937;-63
2022/03/20 15:11:31;;;;;;;;;;;21.40;98.40;;;;;;5044974;28;19929;-61
2022/03/20 15:14:00;;;;;;;;;;;21.40;98.50;;;;;;5039018;28;19929;-62
2022/03/20 15:16:27;;;;;;;;;;;21.40;98.70;;;;;;5049779;28;19932;-60